createdAt,value
2023-01-09T00:03:26.550Z,3.58
2023-01-09T00:08:28.199Z,6.88
2023-01-09T00:13:29.755Z,3.97
2023-01-09T00:18:31.509Z,3.65
2023-01-09T00:23:33.141Z,3.17
2023-01-09T00:28:35.031Z,3.25
2023-01-09T00:33:41.438Z,2.90
2023-01-09T00:38:42.969Z,1.60
2023-01-09T00:43:46.653Z,3.28
2023-01-09T00:48:49.465Z,3.95
2023-01-09T00:53:51.283Z,2.10
2023-01-09T00:58:53.330Z,2.10
2023-01-09T01:03:55.594Z,2.10
2023-01-09T01:08:57.220Z,2.25
2023-01-09T01:13:58.874Z,2.30
2023-01-09T01:19:00.346Z,2.85
2023-01-09T01:24:01.886Z,3.70
2023-01-09T01:29:03.355Z,5.15
2023-01-09T01:34:04.936Z,2.55
2023-01-09T01:39:06.450Z,8.57
2023-01-09T01:44:27.902Z,2.97
2023-01-09T01:49:29.425Z,3.08
2023-01-09T01:54:32.308Z,2.80
2023-01-09T01:59:36.455Z,3.47
2023-01-09T02:04:40.500Z,4.50
2023-01-09T02:09:44.700Z,4.22
2023-01-09T02:14:47.118Z,4.63
2023-01-09T02:19:48.551Z,4.45
2023-01-09T02:25:02.350Z,5.78
2023-01-09T02:30:24.089Z,4.60
2023-01-09T02:35:37.620Z,10.30
2023-01-09T02:40:39.066Z,8.45
2023-01-09T02:45:40.580Z,7.72
2023-01-09T02:50:42.064Z,6.68
2023-01-09T02:56:05.206Z,8.32
2023-01-09T03:01:09.848Z,6.50
2023-01-09T03:06:29.587Z,4.57
2023-01-09T03:11:36.331Z,6.65
2023-01-09T03:16:38.373Z,11.00
2023-01-09T03:21:40.129Z,5.57
2023-01-09T03:26:42.029Z,6.72
2023-01-09T03:31:43.527Z,8.05
2023-01-09T03:36:45.111Z,7.13
2023-01-09T03:41:46.609Z,8.02
2023-01-09T03:46:50.201Z,9.13
2023-01-09T03:51:51.679Z,10.35
2023-01-09T03:56:53.151Z,8.43
2023-01-09T04:01:54.786Z,8.73
2023-01-09T04:06:56.490Z,8.93
2023-01-09T04:11:58.002Z,9.63
2023-01-09T04:16:59.494Z,12.50
2023-01-09T04:22:00.994Z,8.65
2023-01-09T04:27:02.962Z,10.68
2023-01-09T04:32:04.620Z,13.23
2023-01-09T04:37:06.264Z,7.45
2023-01-09T04:42:07.733Z,6.90
2023-01-09T04:47:09.214Z,7.90
2023-01-09T04:52:10.752Z,6.65
2023-01-09T04:57:12.270Z,7.07
2023-01-09T05:02:13.956Z,12.18
2023-01-09T05:07:15.745Z,7.95
2023-01-09T05:12:17.249Z,11.75
2023-01-09T05:17:18.753Z,11.80
2023-01-09T05:22:20.213Z,7.35
2023-01-09T05:27:21.767Z,9.95
2023-01-09T05:32:23.318Z,6.68
2023-01-09T05:37:24.868Z,13.77
2023-01-09T05:42:26.440Z,9.35
2023-01-09T05:47:28.128Z,10.90
2023-01-09T05:52:29.674Z,10.07
2023-01-09T05:57:31.185Z,12.13
2023-01-09T06:02:32.732Z,10.18
2023-01-09T06:07:36.715Z,11.30
2023-01-09T06:12:38.331Z,10.90
2023-01-09T06:17:39.859Z,13.98
2023-01-09T06:22:41.342Z,11.13
2023-01-09T06:27:42.913Z,12.55
2023-01-09T06:32:44.395Z,11.85
2023-01-09T06:37:46.632Z,15.60
2023-01-09T06:42:49.385Z,15.30
2023-01-09T06:47:50.886Z,14.20
2023-01-09T06:52:52.398Z,11.32
2023-01-09T06:57:53.942Z,13.50
2023-01-09T07:02:55.401Z,14.20
2023-01-09T07:07:59.902Z,14.30
2023-01-09T07:13:01.431Z,11.55
2023-01-09T07:18:03.474Z,10.70
2023-01-09T07:23:04.944Z,13.85
2023-01-09T07:28:06.437Z,11.25
2023-01-09T07:33:08.018Z,8.63
2023-01-09T07:38:09.478Z,6.38
2023-01-09T07:43:11.023Z,8.20
2023-01-09T07:48:12.501Z,8.05
2023-01-09T07:53:14.040Z,6.57
2023-01-09T07:58:15.555Z,6.70
2023-01-09T08:03:17.045Z,6.85
2023-01-09T08:08:18.989Z,6.13
2023-01-09T08:13:20.782Z,9.02
2023-01-09T08:18:22.290Z,9.38
2023-01-09T08:23:23.786Z,6.57
2023-01-09T08:28:25.262Z,5.07
2023-01-09T08:33:27.194Z,6.32
2023-01-09T08:38:28.777Z,7.65
2023-01-09T08:43:48.914Z,8.95
2023-01-09T08:48:50.434Z,15.27
2023-01-09T08:53:51.935Z,11.68
2023-01-09T08:58:53.434Z,10.65
2023-01-09T09:03:55.316Z,11.82
2023-01-09T09:08:56.917Z,10.43
2023-01-09T09:13:58.435Z,11.07
2023-01-09T09:18:59.935Z,12.43
2023-01-09T09:24:01.403Z,10.85
2023-01-09T09:29:02.887Z,11.77
2023-01-09T09:34:05.215Z,10.93
2023-01-09T09:39:07.562Z,7.95
2023-01-09T09:44:27.551Z,8.68
2023-01-09T09:49:32.572Z,8.97
2023-01-09T09:54:38.548Z,8.25
2023-01-09T09:59:41.862Z,11.98
2023-01-09T10:04:51.756Z,14.73
2023-01-09T10:09:55.112Z,11.77
2023-01-09T10:15:00.388Z,10.35
2023-01-09T10:20:10.720Z,14.68
2023-01-09T10:25:21.098Z,12.25
2023-01-09T10:30:24.279Z,9.88
2023-01-09T10:35:47.642Z,10.95
2023-01-09T10:41:04.761Z,11.38
2023-01-09T10:46:10.231Z,10.45
2023-01-09T10:51:18.209Z,10.88
2023-01-09T10:56:24.550Z,9.20
2023-01-09T11:01:27.638Z,8.52
2023-01-09T11:06:45.798Z,8.80
2023-01-09T11:11:47.364Z,13.27
2023-01-09T11:16:53.351Z,9.75
2023-01-09T11:22:06.738Z,11.23
2023-01-09T11:27:14.418Z,10.88
2023-01-09T11:32:22.130Z,13.07
2023-01-09T11:37:26.219Z,10.65
2023-01-09T11:42:47.152Z,13.73
2023-01-09T11:47:48.682Z,10.70
2023-01-09T11:53:05.224Z,12.27
2023-01-09T11:58:12.342Z,9.48
2023-01-09T12:03:19.789Z,13.05
2023-01-09T12:08:24.319Z,8.68
2023-01-09T12:13:37.719Z,8.38
2023-01-09T12:18:48.343Z,9.48
2023-01-09T12:23:49.854Z,11.50
2023-01-09T12:29:04.892Z,11.50
2023-01-09T12:34:06.334Z,8.85
2023-01-09T12:39:10.926Z,9.73
2023-01-09T12:44:35.642Z,11.95
2023-01-09T12:49:42.424Z,14.88
2023-01-09T12:55:04.949Z,10.18
2023-01-09T13:00:15.276Z,8.98
2023-01-09T13:05:22.475Z,12.40
2023-01-09T13:10:33.248Z,11.65
2023-01-09T13:15:53.074Z,10.30
2023-01-09T13:20:58.726Z,10.10
2023-01-09T13:26:02.057Z,11.02
2023-01-09T13:31:17.078Z,13.13
2023-01-09T13:36:21.338Z,11.32
2023-01-09T13:41:41.269Z,14.30
2023-01-09T13:46:44.436Z,14.87
2023-01-09T13:51:48.689Z,13.35
2023-01-09T13:57:08.713Z,16.20
2023-01-09T14:02:33.154Z,12.18
2023-01-09T14:07:35.715Z,15.77
2023-01-09T14:12:41.779Z,18.52
2023-01-09T14:17:43.297Z,18.65
2023-01-09T14:22:55.938Z,15.70
2023-01-09T14:28:11.572Z,13.57
2023-01-09T14:33:19.425Z,15.05
2023-01-09T14:38:38.437Z,20.30
2023-01-09T14:43:49.559Z,24.50
2023-01-09T14:48:51.056Z,17.45
2023-01-09T14:53:53.216Z,22.65
2023-01-09T14:59:04.396Z,27.73
2023-01-09T15:04:18.822Z,26.42
2023-01-09T15:09:23.457Z,20.55
2023-01-09T15:14:24.891Z,21.73
2023-01-09T15:19:26.816Z,24.55
2023-01-09T15:24:29.908Z,17.15
2023-01-09T15:29:31.419Z,21.58
2023-01-09T15:34:33.764Z,21.52
2023-01-09T15:39:36.912Z,23.92
2023-01-09T15:44:39.405Z,18.70
2023-01-09T15:49:40.974Z,20.27
2023-01-09T15:54:45.931Z,18.52
2023-01-09T15:59:47.429Z,19.88
2023-01-09T16:04:49.372Z,18.20
2023-01-09T16:09:53.876Z,27.00
2023-01-09T16:14:59.395Z,21.10
2023-01-09T16:20:14.739Z,21.38
2023-01-09T16:25:35.100Z,23.60
2023-01-09T16:30:36.573Z,21.58
2023-01-09T16:35:38.042Z,20.63
2023-01-09T16:40:39.557Z,26.92
2023-01-09T16:45:41.670Z,21.65
2023-01-09T16:50:44.480Z,22.88
2023-01-09T16:55:46.259Z,25.45
2023-01-09T17:00:48.149Z,23.90
2023-01-09T17:05:51.187Z,23.35
2023-01-09T17:10:53.729Z,19.23
2023-01-09T17:15:56.087Z,28.48
2023-01-09T17:20:58.817Z,25.77
2023-01-09T17:26:19.033Z,21.25
2023-01-09T17:31:20.605Z,28.15
2023-01-09T17:36:25.311Z,18.88
2023-01-09T17:41:30.819Z,23.60
2023-01-09T17:46:33.704Z,23.85
2023-01-09T17:51:35.314Z,26.58
2023-01-09T17:56:38.112Z,25.95
2023-01-09T18:01:40.092Z,18.60
2023-01-09T18:06:41.879Z,23.70
2023-01-09T18:11:44.084Z,25.48
2023-01-09T18:16:45.660Z,21.20
2023-01-09T18:21:47.144Z,24.17
2023-01-09T18:26:48.600Z,19.35
2023-01-09T18:31:51.723Z,21.52
2023-01-09T18:36:53.305Z,19.27
2023-01-09T18:41:54.821Z,16.60
2023-01-09T18:46:56.310Z,18.40
2023-01-09T18:51:57.868Z,20.85
2023-01-09T18:56:59.373Z,15.85
2023-01-09T19:02:02.224Z,18.05
2023-01-09T19:07:04.269Z,17.25
2023-01-09T19:12:05.902Z,13.25
2023-01-09T19:17:07.418Z,17.25
2023-01-09T19:22:08.932Z,22.48
2023-01-09T19:27:10.399Z,15.63
2023-01-09T19:32:13.932Z,24.75
2023-01-09T19:37:16.069Z,19.50
2023-01-09T19:42:18.063Z,16.10
2023-01-09T19:47:19.525Z,17.25
2023-01-09T19:52:21.179Z,17.77
2023-01-09T19:57:22.802Z,16.33
2023-01-09T20:02:24.303Z,16.70
2023-01-09T20:07:25.961Z,9.90
2023-01-09T20:12:27.534Z,12.63
2023-01-09T20:17:29.002Z,14.35
2023-01-09T20:22:30.488Z,12.55
2023-01-09T20:27:31.966Z,9.77
2023-01-09T20:32:33.551Z,9.65
2023-01-09T20:37:35.103Z,10.15
2023-01-09T20:42:36.608Z,6.35
2023-01-09T20:47:38.114Z,6.13
2023-01-09T20:52:39.658Z,6.95
2023-01-09T20:57:41.132Z,6.95
2023-01-09T21:02:42.661Z,5.40
2023-01-09T21:07:44.215Z,3.67
2023-01-09T21:12:45.725Z,3.97
2023-01-09T21:17:49.695Z,5.65
2023-01-09T21:22:52.071Z,3.70
2023-01-09T21:27:53.604Z,5.00
2023-01-09T21:32:55.070Z,6.60
2023-01-09T21:37:57.638Z,4.80
2023-01-09T21:43:17.790Z,4.63
2023-01-09T21:48:19.462Z,4.13
2023-01-09T21:53:20.940Z,3.97
2023-01-09T21:58:22.475Z,3.08
2023-01-09T22:03:23.938Z,3.05
2023-01-09T22:08:25.626Z,3.75
2023-01-09T22:13:27.762Z,2.63
2023-01-09T22:18:29.217Z,2.72
2023-01-09T22:23:30.743Z,3.55
2023-01-09T22:28:32.228Z,2.47
2023-01-09T22:33:33.756Z,1.75
2023-01-09T22:38:35.286Z,2.05
2023-01-09T22:43:36.817Z,2.90
2023-01-09T22:48:38.799Z,2.20
2023-01-09T22:53:40.593Z,3.13
2023-01-09T22:58:42.200Z,3.53
2023-01-09T23:03:43.650Z,4.03
2023-01-09T23:08:46.174Z,4.15
2023-01-09T23:13:47.634Z,3.50
2023-01-09T23:18:49.115Z,3.15
2023-01-09T23:23:50.557Z,5.45
2023-01-09T23:28:52.034Z,4.60
2023-01-09T23:33:53.669Z,3.90
2023-01-09T23:38:56.963Z,4.13
2023-01-09T23:43:58.437Z,4.20
2023-01-09T23:48:59.912Z,3.25
2023-01-09T23:54:01.419Z,3.25
2023-01-09T23:59:04.588Z,3.13
